Time;durP1;ratioP1;P1;durP2;ratioP2;P2;SDS_P1;SDS_P2;PMS_P1;PMS_P2;Temp;Humidity;BMP_temperature;BMP_pressure;BME280_temperature;BME280_humidity;BME280_pressure;Samples;Min_cycle;Max_cycle;Signal;HPM_P1;HPM_P2
2023/03/28 00:00:20;;;;;;;3.10;2.57;;;4.50;99.90;;;;;;4987333;28;21024;-70
2023/03/28 00:02:46;;;;;;;5.33;2.27;;;4.40;99.90;;;;;;4995760;28;20192;-72
2023/03/28 00:05:12;;;;;;;3.57;2.37;;;4.50;99.90;;;;;;5003481;28;20191;-69
2023/03/28 00:07:38;;;;;;;3.67;2.70;;;4.50;99.90;;;;;;4987682;28;20598;-68
2023/03/28 00:10:05;;;;;;;7.47;2.87;;;4.60;99.90;;;;;;4995749;28;20945;-71
2023/03/28 00:12:31;;;;;;;3.03;2.10;;;4.50;99.90;;;;;;4997966;28;21020;-69
2023/03/28 00:14:57;;;;;;;3.50;2.57;;;4.50;99.90;;;;;;4986354;28;20419;-70
2023/03/28 00:17:23;;;;;;;3.73;2.03;;;4.70;99.90;;;;;;4984477;28;20180;-72
2023/03/28 00:19:52;;;;;;;4.40;2.83;;;4.70;99.90;;;;;;4986845;28;20441;-71
2023/03/28 00:22:19;;;;;;;2.90;2.60;;;4.70;99.90;;;;;;4987721;28;20453;-71
2023/03/28 00:24:46;;;;;;;2.70;2.33;;;4.70;99.90;;;;;;4997450;28;20447;-69
2023/03/28 00:27:12;;;;;;;3.07;2.23;;;4.70;99.90;;;;;;4999073;28;20418;-70
2023/03/28 00:29:37;;;;;;;4.40;1.97;;;4.60;99.90;;;;;;4984015;28;21024;-71
2023/03/28 00:32:03;;;;;;;3.53;2.20;;;4.50;99.90;;;;;;4984790;28;20255;-68
2023/03/28 00:34:29;;;;;;;5.30;2.17;;;4.50;99.90;;;;;;4987172;28;20255;-71
2023/03/28 00:36:54;;;;;;;3.90;2.50;;;4.50;99.90;;;;;;5025503;22;20601;-71
2023/03/28 00:39:20;;;;;;;4.10;2.10;;;4.40;99.90;;;;;;5006185;28;20615;-69
2023/03/28 00:41:46;;;;;;;2.80;1.80;;;4.50;99.90;;;;;;5006595;28;20375;-70
2023/03/28 00:44:49;;;;;;;6.10;2.40;;;4.40;99.90;;;;;;5007189;28;20183;-69
2023/03/28 00:47:25;;;;;;;3.87;2.53;;;4.30;99.90;;;;;;5007070;28;20199;-70
2023/03/28 00:49:54;;;;;;;3.07;2.43;;;4.30;99.90;;;;;;5007625;28;20453;-70
2023/03/28 00:52:23;;;;;;;6.10;2.63;;;4.20;99.90;;;;;;5007413;28;20486;-68
2023/03/28 00:54:50;;;;;;;2.33;1.70;;;4.20;99.90;;;;;;5007344;28;20423;-69
2023/03/28 00:57:16;;;;;;;2.57;2.20;;;4.30;99.90;;;;;;5006909;28;20433;-69
2023/03/28 00:59:42;;;;;;;3.33;2.13;;;4.40;99.90;;;;;;5006781;28;20490;-68
2023/03/28 01:02:08;;;;;;;3.90;2.07;;;4.40;99.90;;;;;;5007097;28;20502;-69
2023/03/28 01:04:41;;;;;;;2.33;2.03;;;4.40;99.90;;;;;;5005563;28;20590;-68
2023/03/28 01:07:06;;;;;;;6.10;2.50;;;4.30;99.90;;;;;;5006453;28;20462;-71
2023/03/28 01:09:32;;;;;;;3.10;2.20;;;4.30;99.90;;;;;;5005228;28;20841;-67
2023/03/28 01:11:59;;;;;;;3.00;2.00;;;4.30;99.90;;;;;;5006921;28;20286;-68
2023/03/28 01:14:27;;;;;;;2.40;2.00;;;4.30;99.90;;;;;;5006358;28;20540;-69
2023/03/28 01:16:55;;;;;;;5.77;2.47;;;4.20;99.90;;;;;;5005219;28;20439;-68
2023/03/28 01:19:49;;;;;;;5.53;2.10;;;4.10;99.90;;;;;;5006880;28;20407;-68
2023/03/28 01:22:33;;;;;;;5.50;2.40;;;4.00;99.90;;;;;;5006597;28;20414;-68
2023/03/28 01:25:07;;;;;;;3.10;2.30;;;3.90;99.90;;;;;;5006671;28;20788;-68
2023/03/28 01:27:54;;;;;;;4.67;2.40;;;3.80;99.90;;;;;;5006326;28;20440;-68
2023/03/28 01:30:38;;;;;;;5.77;2.67;;;3.80;99.90;;;;;;5006458;28;20406;-68
2023/03/28 01:33:35;;;;;;;2.47;1.97;;;3.80;99.90;;;;;;5005197;28;20477;-68
2023/03/28 01:36:31;;;;;;;2.33;2.10;;;3.80;99.90;;;;;;5006156;28;20443;-69
2023/03/28 01:39:30;;;;;;;4.47;2.60;;;3.80;99.90;;;;;;5006479;28;20403;-67
2023/03/28 01:42:16;;;;;;;2.73;1.83;;;3.80;99.90;;;;;;4997617;28;20426;-69
2023/03/28 01:45:07;;;;;;;2.60;2.30;;;3.70;99.90;;;;;;5003857;28;20979;-69
2023/03/28 01:47:40;;;;;;;4.23;2.07;;;3.70;99.90;;;;;;5005994;28;20484;-69
2023/03/28 01:50:33;;;;;;;4.93;2.47;;;3.60;99.90;;;;;;5006435;28;20926;-69
2023/03/28 01:53:26;;;;;;;3.90;2.73;;;3.70;99.90;;;;;;5006193;28;20493;-69
2023/03/28 01:56:09;;;;;;;2.50;2.07;;;3.50;99.90;;;;;;5005813;28;20391;-70
2023/03/28 01:59:06;;;;;;;2.90;2.13;;;3.40;99.90;;;;;;5006159;28;20438;-70
2023/03/28 02:01:54;;;;;;;6.47;2.90;;;3.40;99.90;;;;;;5005940;28;20454;-69
2023/03/28 02:04:22;;;;;;;5.17;2.33;;;3.30;99.90;;;;;;5006191;28;20422;-69
2023/03/28 02:06:50;;;;;;;5.03;2.43;;;3.40;99.90;;;;;;5005618;28;20431;-70
2023/03/28 02:09:18;;;;;;;3.07;2.37;;;3.40;99.90;;;;;;5005606;28;20801;-70
2023/03/28 02:11:48;;;;;;;2.83;2.17;;;3.40;99.90;;;;;;5005713;28;20454;-70
2023/03/28 02:14:17;;;;;;;3.23;2.40;;;3.40;99.90;;;;;;5005777;28;20414;-69
2023/03/28 02:16:48;;;;;;;4.37;2.47;;;3.40;99.90;;;;;;5005459;28;20968;-69
2023/03/28 02:19:15;;;;;;;4.80;2.90;;;3.40;99.90;;;;;;5005766;28;20454;-69
2023/03/28 02:21:57;;;;;;;5.80;2.37;;;3.40;99.90;;;;;;5005827;28;20410;-69
2023/03/28 02:24:22;;;;;;;6.10;2.83;;;3.40;99.90;;;;;;5005233;28;20407;-69
2023/03/28 02:26:48;;;;;;;2.80;2.50;;;3.40;99.90;;;;;;5007672;28;20766;-70
2023/03/28 02:29:14;;;;;;;3.37;2.30;;;3.40;99.90;;;;;;5005459;28;20273;-68
2023/03/28 02:31:40;;;;;;;2.80;2.03;;;3.40;99.90;;;;;;5005380;28;20207;-69
2023/03/28 02:34:08;;;;;;;5.17;2.47;;;3.40;99.90;;;;;;5005281;28;20415;-69
2023/03/28 02:36:46;;;;;;;4.20;3.80;;;3.30;99.90;;;;;;5005185;28;20216;-69
2023/03/28 02:39:45;;;;;;;3.90;2.60;;;3.20;99.90;;;;;;5005617;28;20411;-69
2023/03/28 02:42:33;;;;;;;4.03;3.10;;;3.30;99.90;;;;;;5004568;28;20407;-68
2023/03/28 02:45:32;;;;;;;2.53;2.33;;;3.20;99.90;;;;;;5004828;28;20406;-69
2023/03/28 02:48:08;;;;;;;3.30;2.73;;;3.30;99.90;;;;;;5004605;28;20541;-68
2023/03/28 02:50:49;;;;;;;3.80;2.93;;;3.20;99.90;;;;;;5003598;28;20413;-68
2023/03/28 02:53:53;;;;;;;3.13;2.80;;;3.20;99.90;;;;;;5004957;28;21082;-68
2023/03/28 02:56:49;;;;;;;2.40;2.20;;;3.20;99.90;;;;;;4999130;28;20450;-68
2023/03/28 02:59:26;;;;;;;3.70;2.30;;;3.30;99.90;;;;;;5003274;28;20514;-68
2023/03/28 03:01:52;;;;;;;3.80;2.90;;;3.30;99.90;;;;;;5004773;28;20415;-68
2023/03/28 03:04:17;;;;;;;4.53;2.93;;;3.20;99.90;;;;;;5004813;28;20453;-68
2023/03/28 03:06:47;;;;;;;3.43;3.13;;;3.20;99.90;;;;;;5004694;28;20204;-68
2023/03/28 03:09:14;;;;;;;3.30;2.50;;;3.20;99.90;;;;;;5003410;28;20279;-70
2023/03/28 03:11:40;;;;;;;3.43;2.20;;;3.10;99.90;;;;;;5004368;28;20454;-68
2023/03/28 03:14:05;;;;;;;3.20;2.90;;;3.10;99.90;;;;;;5005294;28;20422;-68
2023/03/28 03:16:37;;;;;;;3.00;2.17;;;3.00;99.90;;;;;;5003914;28;20202;-69
2023/03/28 03:19:03;;;;;;;5.20;3.10;;;3.00;99.90;;;;;;5004516;28;20195;-68
2023/03/28 03:21:28;;;;;;;6.60;2.90;;;3.00;99.90;;;;;;5004284;28;20453;-68
2023/03/28 03:23:54;;;;;;;5.00;2.90;;;3.00;99.90;;;;;;5004564;28;20411;-68
2023/03/28 03:26:21;;;;;;;3.13;2.77;;;2.90;99.90;;;;;;5004112;28;20246;-67
2023/03/28 03:28:48;;;;;;;5.10;3.57;;;2.90;99.90;;;;;;5004384;28;20682;-68
2023/03/28 03:31:13;;;;;;;4.90;2.30;;;2.80;99.90;;;;;;5004067;28;20449;-68
2023/03/28 03:33:41;;;;;;;3.63;3.30;;;2.90;99.90;;;;;;5004020;28;20724;-68
2023/03/28 03:36:08;;;;;;;6.80;3.33;;;2.70;99.90;;;;;;5002805;28;20282;-68
2023/03/28 03:38:34;;;;;;;5.37;3.70;;;2.90;99.90;;;;;;5004437;28;20410;-68
2023/03/28 03:41:00;;;;;;;4.73;3.10;;;2.80;99.90;;;;;;5003448;28;20968;-68
2023/03/28 03:43:26;;;;;;;3.93;3.00;;;2.80;99.90;;;;;;5004090;28;20783;-68
2023/03/28 03:45:52;;;;;;;6.37;3.30;;;2.90;99.90;;;;;;5003277;28;20176;-68
2023/03/28 03:48:17;;;;;;;3.37;2.47;;;2.90;99.90;;;;;;5003866;28;20411;-69
2023/03/28 03:50:43;;;;;;;6.17;3.20;;;2.90;99.90;;;;;;5003895;28;20730;-69
2023/03/28 03:53:09;;;;;;;4.13;2.80;;;2.90;99.90;;;;;;5003986;28;20199;-69
2023/03/28 03:55:38;;;;;;;3.97;2.87;;;2.90;99.90;;;;;;5004309;28;20425;-69
2023/03/28 03:58:04;;;;;;;6.20;2.60;;;2.90;99.90;;;;;;5002946;28;21016;-70
2023/03/28 04:00:30;;;;;;;3.57;2.37;;;2.80;99.90;;;;;;5002087;28;20457;-69
2023/03/28 04:02:56;;;;;;;5.77;2.70;;;2.90;99.90;;;;;;5003785;28;20268;-69
2023/03/28 04:05:22;;;;;;;4.87;3.40;;;2.80;99.90;;;;;;5003478;28;20224;-69
2023/03/28 04:07:47;;;;;;;5.00;2.90;;;2.90;99.90;;;;;;5001769;28;20299;-69
2023/03/28 04:10:13;;;;;;;5.23;2.93;;;2.90;99.90;;;;;;5002238;28;20517;-69
2023/03/28 04:12:38;;;;;;;9.50;2.97;;;2.80;99.90;;;;;;5002734;28;20200;-69
2023/03/28 04:15:08;;;;;;;4.80;3.37;;;2.70;99.90;;;;;;5003751;28;20650;-69
2023/03/28 04:17:34;;;;;;;4.40;3.13;;;2.80;99.90;;;;;;5003496;28;20202;-69
2023/03/28 04:20:11;;;;;;;4.23;2.80;;;2.70;99.90;;;;;;5003912;28;20477;-69
2023/03/28 04:22:37;;;;;;;5.40;3.77;;;2.70;99.90;;;;;;5003620;28;20427;-69
2023/03/28 04:25:07;;;;;;;3.70;3.40;;;2.70;99.90;;;;;;5004168;28;20855;-69
2023/03/28 04:27:32;;;;;;;4.90;2.90;;;2.60;99.90;;;;;;5003302;28;20438;-69
2023/03/28 04:29:59;;;;;;;6.53;4.30;;;2.60;99.90;;;;;;5003850;28;20417;-70
2023/03/28 04:32:25;;;;;;;10.33;4.90;;;2.60;99.90;;;;;;5003478;28;20230;-70
2023/03/28 04:34:50;;;;;;;9.20;3.67;;;2.60;99.90;;;;;;5004348;28;20933;-69
2023/03/28 04:37:17;;;;;;;6.60;3.53;;;2.60;99.90;;;;;;5002601;28;20636;-69
2023/03/28 04:39:52;;;;;;;4.63;2.80;;;2.50;99.90;;;;;;5003279;28;20222;-69
2023/03/28 04:42:18;;;;;;;4.80;3.57;;;2.60;99.90;;;;;;5001572;28;20465;-69
2023/03/28 04:44:44;;;;;;;7.90;3.83;;;2.60;99.90;;;;;;5001699;28;20926;-69
2023/03/28 04:47:12;;;;;;;7.77;3.53;;;2.60;99.90;;;;;;5002670;28;20196;-69
2023/03/28 04:49:38;;;;;;;5.50;3.27;;;2.60;99.90;;;;;;5002828;28;20172;-70
2023/03/28 04:52:06;;;;;;;6.70;2.73;;;2.50;99.90;;;;;;5003473;28;21081;-70
2023/03/28 04:54:32;;;;;;;3.13;2.50;;;2.60;99.90;;;;;;5002886;28;20176;-70
2023/03/28 04:56:58;;;;;;;4.03;3.40;;;2.60;99.90;;;;;;5002509;28;20441;-70
2023/03/28 04:59:23;;;;;;;4.30;3.17;;;2.60;99.90;;;;;;5002523;28;20176;-70
2023/03/28 05:01:49;;;;;;;4.30;3.50;;;2.60;99.90;;;;;;5001111;28;20179;-70
2023/03/28 05:04:19;;;;;;;5.40;4.20;;;2.60;99.90;;;;;;5002824;28;20184;-70
2023/03/28 05:06:45;;;;;;;7.60;4.60;;;2.50;99.90;;;;;;5000898;28;20207;-71
2023/03/28 05:09:11;;;;;;;6.53;3.13;;;2.50;99.90;;;;;;5002209;28;20418;-71
2023/03/28 05:11:38;;;;;;;4.70;3.30;;;2.60;99.90;;;;;;5000773;28;20735;-71
2023/03/28 05:14:04;;;;;;;4.97;3.23;;;2.50;99.90;;;;;;5001595;28;20458;-70
2023/03/28 05:16:29;;;;;;;6.23;4.00;;;2.50;99.90;;;;;;5001424;28;20866;-71
2023/03/28 05:18:55;;;;;;;4.07;3.67;;;2.50;99.90;;;;;;5002375;28;20183;-71
2023/03/28 05:21:21;;;;;;;7.60;4.40;;;2.60;99.90;;;;;;5003930;28;20178;-71
2023/03/28 05:23:47;;;;;;;4.57;3.57;;;2.60;99.90;;;;;;5005370;28;20681;-71
2023/03/28 05:26:12;;;;;;;6.30;4.13;;;2.50;99.90;;;;;;5005289;28;20446;-70
2023/03/28 05:28:38;;;;;;;8.67;3.80;;;2.60;99.90;;;;;;5004806;28;20190;-71
2023/03/28 05:31:06;;;;;;;12.00;3.67;;;2.60;99.90;;;;;;5005872;28;20715;-70
2023/03/28 05:33:32;;;;;;;3.23;2.93;;;2.60;99.90;;;;;;5003665;28;20212;-70
2023/03/28 05:35:59;;;;;;;12.30;5.10;;;2.60;99.90;;;;;;4967795;28;1094308;-71
2023/03/28 05:38:25;;;;;;;5.77;3.43;;;2.50;99.90;;;;;;5006993;28;20175;-70
2023/03/28 05:40:51;;;;;;;4.03;3.40;;;2.50;99.90;;;;;;5005345;28;20422;-72
2023/03/28 05:43:16;;;;;;;4.13;2.97;;;2.60;99.90;;;;;;5006168;28;20518;-71
2023/03/28 05:45:42;;;;;;;5.20;4.03;;;2.70;99.90;;;;;;5006247;28;20981;-71
2023/03/28 05:48:08;;;;;;;5.20;3.70;;;2.80;99.90;;;;;;5006438;28;20176;-71
2023/03/28 05:50:33;;;;;;;7.23;4.03;;;2.80;99.90;;;;;;5004737;28;20188;-70
2023/03/28 05:52:59;;;;;;;5.70;3.70;;;2.80;99.90;;;;;;5006259;28;20212;-68
2023/03/28 05:55:25;;;;;;;6.07;4.00;;;2.90;99.90;;;;;;5006242;28;20172;-70
2023/03/28 05:57:50;;;;;;;5.50;3.53;;;2.90;99.90;;;;;;5005921;28;20610;-69
2023/03/28 06:00:17;;;;;;;10.10;5.30;;;3.00;99.90;;;;;;5005930;28;20183;-69
2023/03/28 06:02:43;;;;;;;7.10;4.57;;;3.00;99.90;;;;;;5004601;28;20184;-70
2023/03/28 06:05:10;;;;;;;9.70;4.20;;;2.90;99.90;;;;;;5006283;28;20506;-69
2023/03/28 06:07:37;;;;;;;6.20;4.13;;;2.80;99.90;;;;;;5005356;28;20984;-69
2023/03/28 06:10:05;;;;;;;7.60;5.10;;;2.90;99.90;;;;;;5004229;28;20430;-69
2023/03/28 06:12:31;;;;;;;4.40;3.90;;;2.90;99.90;;;;;;5005845;28;20458;-69
2023/03/28 06:14:57;;;;;;;7.20;3.70;;;3.00;99.90;;;;;;5005025;28;20481;-69
2023/03/28 06:17:23;;;;;;;6.77;3.63;;;3.10;99.90;;;;;;5005056;28;20952;-69
2023/03/28 06:19:48;;;;;;;4.73;2.87;;;3.20;99.90;;;;;;5005329;28;20203;-70
2023/03/28 06:22:14;;;;;;;5.00;3.20;;;3.10;99.90;;;;;;5005636;28;20481;-70
2023/03/28 06:24:40;;;;;;;5.77;3.67;;;3.20;99.90;;;;;;5005806;28;20263;-70
2023/03/28 06:27:05;;;;;;;5.40;3.23;;;3.20;99.90;;;;;;5005427;28;20286;-69
2023/03/28 06:29:31;;;;;;;5.27;3.43;;;3.30;99.90;;;;;;5003810;28;20180;-69
2023/03/28 06:31:56;;;;;;;6.40;3.60;;;3.30;99.90;;;;;;5002842;28;20215;-70
2023/03/28 06:34:22;;;;;;;7.47;3.73;;;3.40;99.90;;;;;;5005593;28;20610;-69
2023/03/28 06:36:48;;;;;;;5.57;4.00;;;3.30;99.90;;;;;;5005296;28;20218;-69
2023/03/28 06:39:13;;;;;;;3.70;2.63;;;3.40;99.90;;;;;;5006375;28;20188;-69
2023/03/28 06:41:39;;;;;;;7.20;3.43;;;3.50;99.90;;;;;;5004628;28;20186;-69
2023/03/28 06:44:05;;;;;;;6.00;3.50;;;3.60;99.90;;;;;;5005535;28;20556;-69
2023/03/28 06:46:30;;;;;;;4.17;3.10;;;3.70;99.90;;;;;;5003662;28;20435;-70
2023/03/28 06:48:56;;;;;;;4.60;2.97;;;3.80;99.90;;;;;;5005180;28;20236;-70
2023/03/28 06:51:22;;;;;;;3.47;2.97;;;4.00;99.90;;;;;;5005233;28;20558;-69
2023/03/28 06:53:47;;;;;;;7.77;3.40;;;4.10;99.90;;;;;;5003566;28;20710;-70
2023/03/28 06:56:13;;;;;;;8.00;3.70;;;4.10;99.90;;;;;;5005107;28;20203;-70
2023/03/28 06:58:38;;;;;;;5.93;3.23;;;4.30;99.90;;;;;;5004519;28;20184;-70
2023/03/28 07:01:05;;;;;;;5.80;4.00;;;4.40;99.90;;;;;;5003691;28;20179;-70
2023/03/28 07:03:30;;;;;;;6.30;3.90;;;4.40;99.90;;;;;;5004791;28;20226;-70
2023/03/28 07:05:56;;;;;;;6.23;3.80;;;4.60;99.90;;;;;;5005001;28;20554;-69
2023/03/28 07:08:22;;;;;;;4.87;2.83;;;4.70;99.90;;;;;;5005600;28;20183;-70
2023/03/28 07:10:47;;;;;;;6.60;3.70;;;4.90;99.90;;;;;;5005028;28;20176;-71
2023/03/28 07:13:13;;;;;;;8.83;3.47;;;5.00;99.90;;;;;;5004539;28;20286;-70
2023/03/28 07:15:39;;;;;;;4.37;3.10;;;5.20;99.90;;;;;;5005024;28;20184;-71
2023/03/28 07:18:05;;;;;;;6.23;3.20;;;5.40;99.90;;;;;;5004894;28;20204;-70
2023/03/28 07:20:31;;;;;;;6.23;3.50;;;5.40;99.90;;;;;;5003290;28;20662;-70
2023/03/28 07:22:57;;;;;;;6.33;3.27;;;5.20;99.90;;;;;;5004513;28;20423;-70
2023/03/28 07:25:23;;;;;;;3.87;3.23;;;5.40;99.90;;;;;;5004558;28;20191;-70
2023/03/28 07:27:49;;;;;;;3.83;3.47;;;5.60;99.90;;;;;;5004273;28;20200;-69
2023/03/28 07:30:15;;;;;;;7.07;3.40;;;5.80;99.90;;;;;;5003520;28;20434;-69
2023/03/28 07:32:40;;;;;;;4.60;3.50;;;5.60;99.90;;;;;;5003810;28;20245;-69
2023/03/28 07:35:07;;;;;;;5.93;3.50;;;5.50;99.90;;;;;;5004242;28;20633;-70
2023/03/28 07:37:33;;;;;;;7.00;3.00;;;5.60;99.90;;;;;;5042909;22;20649;-71
2023/03/28 07:39:59;;;;;;;4.30;3.50;;;5.60;99.90;;;;;;5022527;28;20418;-70
2023/03/28 07:42:25;;;;;;;4.70;3.53;;;5.70;99.90;;;;;;5019946;28;20767;-70
2023/03/28 07:44:51;;;;;;;9.07;4.03;;;5.60;99.90;;;;;;5023184;28;20920;-70
2023/03/28 07:47:17;;;;;;;8.10;3.50;;;5.50;99.90;;;;;;5022779;28;20994;-70
2023/03/28 07:49:44;;;;;;;4.30;3.83;;;5.60;99.90;;;;;;5011376;28;20411;-72
2023/03/28 07:52:10;;;;;;;4.13;3.03;;;5.80;99.90;;;;;;5004840;28;20640;-71
2023/03/28 07:54:36;;;;;;;7.83;3.00;;;5.90;99.90;;;;;;5011049;28;21157;-70
2023/03/28 07:57:01;;;;;;;11.37;3.33;;;5.90;99.90;;;;;;5019384;28;20482;-69
2023/03/28 07:59:27;;;;;;;6.17;2.60;;;5.70;99.90;;;;;;5006646;28;20358;-69
2023/03/28 08:01:53;;;;;;;6.80;2.93;;;5.80;99.90;;;;;;5004342;28;20187;-70
2023/03/28 08:04:19;;;;;;;7.47;4.13;;;5.70;99.90;;;;;;5008736;28;20654;-69
2023/03/28 08:06:44;;;;;;;5.63;3.67;;;5.80;99.90;;;;;;5016220;28;20571;-69
2023/03/28 08:09:14;;;;;;;6.43;3.83;;;6.10;99.90;;;;;;5007504;28;20517;-70
2023/03/28 08:11:41;;;;;;;7.93;3.90;;;6.40;99.90;;;;;;5008153;28;20223;-69
2023/03/28 08:14:09;;;;;;;7.83;3.30;;;6.70;99.90;;;;;;5005303;28;20459;-70
2023/03/28 08:16:35;;;;;;;5.67;3.07;;;6.80;99.90;;;;;;5005948;28;20518;-70
2023/03/28 08:19:01;;;;;;;9.03;3.07;;;7.00;99.90;;;;;;5004780;28;20483;-70
2023/03/28 08:21:30;;;;;;;5.03;2.83;;;6.80;99.90;;;;;;5014007;28;20239;-70
2023/03/28 08:23:56;;;;;;;5.60;2.60;;;6.60;99.90;;;;;;5008224;28;20417;-70
2023/03/28 08:26:23;;;;;;;6.90;2.53;;;6.40;99.90;;;;;;5015158;28;20800;-69
2023/03/28 08:28:48;;;;;;;3.63;2.77;;;6.40;99.90;;;;;;5021898;28;20950;-68
2023/03/28 08:31:15;;;;;;;4.23;2.37;;;6.30;99.90;;;;;;5010004;28;20419;-69
2023/03/28 08:33:47;;;;;;;2.70;2.40;;;6.40;99.90;;;;;;5006346;28;20626;-69
2023/03/28 08:36:13;;;;;;;5.83;2.73;;;6.30;99.90;;;;;;5011515;28;20416;-69
2023/03/28 08:38:43;;;;;;;5.00;2.50;;;6.30;99.90;;;;;;5006582;28;20426;-69
2023/03/28 08:41:18;;;;;;;7.43;2.40;;;6.50;99.90;;;;;;5006795;28;20432;-70
2023/03/28 08:44:15;;;;;;;3.10;2.20;;;6.50;99.90;;;;;;5004994;28;20422;-71
2023/03/28 08:46:44;;;;;;;4.57;1.90;;;6.90;99.90;;;;;;5004740;28;20437;-71
2023/03/28 08:49:19;;;;;;;5.90;2.50;;;6.90;99.90;;;;;;5008434;28;20426;-70
2023/03/28 08:51:55;;;;;;;2.93;2.23;;;7.00;99.90;;;;;;5004420;28;20404;-71
2023/03/28 08:55:05;;;;;;;3.70;1.90;;;7.00;99.50;;;;;;5006023;28;20428;-71
2023/03/28 08:57:34;;;;;;;3.93;1.93;;;7.10;99.40;;;;;;5008316;28;20439;-70
2023/03/28 09:00:11;;;;;;;3.17;1.83;;;7.30;98.80;;;;;;5011362;28;20907;-70
2023/03/28 09:02:37;;;;;;;2.93;1.80;;;7.20;98.40;;;;;;5015482;28;20782;-71
2023/03/28 09:05:03;;;;;;;6.30;2.07;;;7.20;97.70;;;;;;5011622;28;20434;-69
2023/03/28 09:07:43;;;;;;;2.40;2.00;;;7.20;96.90;;;;;;5007720;28;20210;-69
2023/03/28 09:10:42;;;;;;;7.07;2.77;;;7.10;97.80;;;;;;5008948;28;20261;-71
2023/03/28 09:13:46;;;;;;;5.20;2.33;;;7.50;99.10;;;;;;5008318;28;20974;-70
2023/03/28 09:16:48;;;;;;;3.03;2.03;;;7.90;97.90;;;;;;4944585;28;20438;-70
2023/03/28 09:19:35;;;;;;;5.20;1.80;;;8.10;96.10;;;;;;4944582;28;20505;-70
2023/03/28 09:22:25;;;;;;;2.30;1.60;;;7.70;94.10;;;;;;4992706;28;20419;-69
2023/03/28 09:25:31;;;;;;;4.13;2.07;;;8.10;94.70;;;;;;5000751;28;20514;-69
2023/03/28 09:28:25;;;;;;;2.80;2.00;;;8.70;94.10;;;;;;4999803;28;20694;-71
2023/03/28 09:30:53;;;;;;;5.80;1.93;;;8.80;94.20;;;;;;4994310;28;20431;-70
2023/03/28 09:33:30;;;;;;;3.60;2.20;;;8.60;93.70;;;;;;5000675;28;20456;-71
2023/03/28 09:35:56;;;;;;;5.07;1.80;;;8.40;92.40;;;;;;4998931;28;20429;-70
2023/03/28 09:38:30;;;;;;;4.30;2.03;;;8.10;92.90;;;;;;5000647;28;20518;-69
2023/03/28 09:40:58;;;;;;;3.47;1.90;;;8.00;92.90;;;;;;5000179;28;20769;-70
2023/03/28 09:43:41;;;;;;;4.40;2.17;;;8.20;94.10;;;;;;5001765;28;20415;-70
2023/03/28 09:46:12;;;;;;;3.70;1.80;;;8.50;92.70;;;;;;5003470;28;20423;-69
2023/03/28 09:48:38;;;;;;;2.60;1.67;;;8.80;91.70;;;;;;4998611;28;20880;-71
2023/03/28 09:51:06;;;;;;;2.60;1.80;;;8.70;89.60;;;;;;5000703;28;20429;-71
2023/03/28 09:53:36;;;;;;;3.93;1.83;;;8.70;90.10;;;;;;5000619;28;20510;-70
2023/03/28 09:56:32;;;;;;;5.83;2.30;;;8.90;89.80;;;;;;4999977;28;20422;-69
2023/03/28 09:59:01;;;;;;;3.90;1.90;;;8.60;90.10;;;;;;5000034;28;20766;-69
2023/03/28 10:01:42;;;;;;;2.90;1.87;;;8.70;89.50;;;;;;5008704;28;20418;-70
2023/03/28 10:04:13;;;;;;;5.60;2.53;;;8.30;90.10;;;;;;5007730;28;20415;-68
2023/03/28 10:06:40;;;;;;;4.03;1.90;;;8.20;89.00;;;;;;5007055;28;20454;-69
2023/03/28 10:09:17;;;;;;;5.97;1.90;;;8.30;88.50;;;;;;5011583;28;20909;-71
2023/03/28 10:11:55;;;;;;;2.90;1.80;;;8.50;86.80;;;;;;5007290;28;21175;-70
2023/03/28 10:14:37;;;;;;;3.80;1.90;;;8.60;90.70;;;;;;5015945;28;20417;-70
2023/03/28 10:17:06;;;;;;;2.87;1.77;;;8.70;90.40;;;;;;5018406;28;20439;-70
2023/03/28 10:19:34;;;;;;;4.10;2.23;;;8.90;86.50;;;;;;5022895;28;20417;-72
2023/03/28 10:22:04;;;;;;;3.20;1.90;;;9.20;85.10;;;;;;5006257;28;20815;-71
2023/03/28 10:24:31;;;;;;;4.20;1.50;;;9.20;83.60;;;;;;5010979;28;20423;-71
2023/03/28 10:27:05;;;;;;;5.23;2.53;;;9.10;84.50;;;;;;5013784;28;20438;-70
2023/03/28 10:29:32;;;;;;;3.10;2.43;;;9.20;86.00;;;;;;5012171;28;20418;-71
2023/03/28 10:31:58;;;;;;;3.77;1.90;;;9.20;89.40;;;;;;5003631;28;20973;-68
2023/03/28 10:34:32;;;;;;;3.03;2.03;;;9.40;88.50;;;;;;5009821;28;20422;-70
2023/03/28 10:36:58;;;;;;;4.30;2.53;;;9.10;87.00;;;;;;5018268;28;20221;-70
2023/03/28 10:39:31;;;;;;;3.00;2.07;;;9.10;87.20;;;;;;5023631;28;20427;-69
2023/03/28 10:42:01;;;;;;;5.10;2.13;;;9.20;85.60;;;;;;5016231;28;20665;-68
2023/03/28 10:44:29;;;;;;;4.20;1.70;;;9.30;86.10;;;;;;5004297;28;20429;-68
2023/03/28 10:47:10;;;;;;;2.67;1.70;;;9.50;84.00;;;;;;5024228;28;20437;-72
2023/03/28 10:49:45;;;;;;;2.10;1.90;;;10.00;82.30;;;;;;5006835;28;20434;-68
2023/03/28 10:52:21;;;;;;;2.60;1.93;;;10.10;81.00;;;;;;5005953;28;20456;-70
2023/03/28 10:54:57;;;;;;;2.10;1.87;;;10.00;82.50;;;;;;5004055;28;20476;-69
2023/03/28 10:58:03;;;;;;;4.43;2.20;;;10.40;81.00;;;;;;5005129;28;20430;-71
2023/03/28 11:00:41;;;;;;;7.27;2.50;;;10.60;80.60;;;;;;5008246;28;20819;-71
2023/03/28 11:03:14;;;;;;;5.10;2.40;;;10.80;78.10;;;;;;5022984;28;20421;-71
2023/03/28 11:05:54;;;;;;;3.70;2.10;;;10.90;77.30;;;;;;5018705;28;20453;-71
2023/03/28 11:09:00;;;;;;;3.43;2.13;;;11.50;78.00;;;;;;5014065;28;21333;-71
2023/03/28 11:11:34;;;;;;;2.70;1.70;;;11.60;76.40;;;;;;4969629;28;20455;-70
2023/03/28 11:14:30;;;;;;;3.00;1.93;;;12.50;75.40;;;;;;5023483;28;20460;-68
2023/03/28 11:17:03;;;;;;;4.30;1.83;;;14.60;73.90;;;;;;5019237;28;20462;-70
2023/03/28 11:19:53;;;;;;;6.10;2.60;;;15.20;62.10;;;;;;5009762;28;20429;-70
2023/03/28 11:22:28;;;;;;;4.53;2.40;;;15.60;58.80;;;;;;5024602;28;20493;-70
2023/03/28 11:25:13;;;;;;;3.30;2.00;;;15.00;58.80;;;;;;5016376;28;20414;-71
2023/03/28 11:27:52;;;;;;;2.63;1.70;;;15.90;59.70;;;;;;5020295;28;20422;-71
2023/03/28 11:30:27;;;;;;;2.23;1.70;;;16.90;58.10;;;;;;5012047;28;20764;-71
2023/03/28 11:33:18;;;;;;;2.77;1.90;;;16.60;57.60;;;;;;5013676;28;20453;-71
2023/03/28 11:35:53;;;;;;;5.13;2.63;;;16.30;57.50;;;;;;4977230;28;20415;-70
2023/03/28 11:38:25;;;;;;;3.33;2.10;;;16.70;54.40;;;;;;5004652;28;20452;-71
2023/03/28 11:41:11;;;;;;;3.80;2.60;;;16.70;54.10;;;;;;5007879;28;20552;-69
2023/03/28 11:43:45;;;;;;;3.67;2.20;;;15.90;54.90;;;;;;5023569;28;20418;-71
2023/03/28 11:46:23;;;;;;;2.67;1.90;;;16.90;55.90;;;;;;5016406;28;20476;-70
2023/03/28 11:48:54;;;;;;;3.00;1.80;;;17.20;52.00;;;;;;5021801;28;20421;-72
2023/03/28 11:51:31;;;;;;;3.00;2.07;;;16.20;52.20;;;;;;5004207;28;20399;-70
2023/03/28 11:54:06;;;;;;;2.83;2.23;;;16.80;53.20;;;;;;5010240;28;20449;-71
2023/03/28 11:56:55;;;;;;;3.70;2.20;;;16.90;52.70;;;;;;5004187;28;20525;-72
2023/03/28 11:59:29;;;;;;;3.23;2.00;;;17.60;51.80;;;;;;5003712;28;20414;-70
2023/03/28 12:02:29;;;;;;;2.17;1.87;;;17.70;50.80;;;;;;5008268;28;20790;-71
2023/03/28 12:05:18;;;;;;;2.70;2.13;;;17.10;51.50;;;;;;5006142;28;20407;-70
2023/03/28 12:08:10;;;;;;;3.03;1.90;;;17.00;52.50;;;;;;5007476;28;20524;-69
2023/03/28 12:10:37;;;;;;;5.60;2.57;;;18.10;52.00;;;;;;4984039;28;20924;-71
2023/03/28 12:13:14;;;;;;;6.20;2.30;;;18.90;48.70;;;;;;5018589;28;20535;-69
2023/03/28 12:15:50;;;;;;;3.57;2.20;;;18.30;49.80;;;;;;5012757;28;20403;-71
2023/03/28 12:18:40;;;;;;;3.80;2.10;;;17.50;48.90;;;;;;5006333;28;20434;-70
2023/03/28 12:21:21;;;;;;;4.73;2.03;;;16.60;48.90;;;;;;5004225;28;20402;-71
2023/03/28 12:24:10;;;;;;;2.77;2.00;;;16.90;51.50;;;;;;5003027;28;20805;-73
2023/03/28 12:26:55;;;;;;;2.80;2.30;;;16.60;51.20;;;;;;5008468;28;20442;-70
2023/03/28 12:29:27;;;;;;;2.20;2.00;;;16.10;50.90;;;;;;4984715;28;20419;-70
2023/03/28 12:32:20;;;;;;;4.50;1.90;;;16.20;51.90;;;;;;5011997;28;20672;-70
2023/03/28 12:35:00;;;;;;;3.00;2.13;;;15.80;52.30;;;;;;4973067;28;20419;-71
2023/03/28 12:37:41;;;;;;;3.50;2.30;;;16.00;54.50;;;;;;5015743;28;20465;-69
2023/03/28 12:40:23;;;;;;;6.33;2.40;;;15.90;53.10;;;;;;5003882;28;20453;-70
2023/03/28 12:42:52;;;;;;;4.00;2.07;;;16.40;54.50;;;;;;5005302;28;20416;-71
2023/03/28 12:45:41;;;;;;;2.53;2.00;;;15.50;52.60;;;;;;5012527;28;20410;-71
2023/03/28 12:48:16;;;;;;;4.50;2.50;;;16.30;52.50;;;;;;5009389;28;20438;-72
2023/03/28 12:50:51;;;;;;;4.10;2.13;;;16.20;53.40;;;;;;5003712;28;20782;-70
2023/03/28 12:53:17;;;;;;;2.27;2.00;;;16.60;52.20;;;;;;5003285;28;20442;-70
2023/03/28 12:55:44;;;;;;;3.80;2.30;;;16.10;53.30;;;;;;5015555;28;20446;-71
2023/03/28 12:58:19;;;;;;;3.90;2.00;;;16.00;54.30;;;;;;5005231;28;20439;-71
2023/03/28 13:01:04;;;;;;;3.10;2.17;;;16.10;51.60;;;;;;5009321;28;20437;-70
2023/03/28 13:04:04;;;;;;;4.43;2.33;;;15.60;53.00;;;;;;5013946;28;20430;-73
2023/03/28 13:06:47;;;;;;;6.90;2.50;;;15.50;53.00;;;;;;5010212;28;21101;-69
2023/03/28 13:09:40;;;;;;;2.17;1.97;;;15.40;52.80;;;;;;5007175;28;20410;-74
2023/03/28 13:12:24;;;;;;;3.07;2.00;;;15.50;52.20;;;;;;5002762;28;20455;-69
2023/03/28 13:15:26;;;;;;;2.90;2.10;;;16.80;52.00;;;;;;5010278;28;20857;-72
2023/03/28 13:18:16;;;;;;;3.00;1.90;;;17.40;49.90;;;;;;4971854;28;20488;-70
2023/03/28 13:20:46;;;;;;;2.67;1.90;;;17.70;49.00;;;;;;5003514;28;20411;-71
2023/03/28 13:23:14;;;;;;;2.83;1.87;;;17.90;49.50;;;;;;5005239;28;20473;-69